createdAt,value
2019-03-10T00:02:12.719Z,-3.87
2019-03-10T00:04:38.772Z,-3.90
2019-03-10T00:07:04.741Z,-3.92
2019-03-10T00:09:30.700Z,-3.92
2019-03-10T00:11:56.769Z,-3.89
2019-03-10T00:14:22.708Z,-3.87
2019-03-10T00:16:48.555Z,-3.88
2019-03-10T00:19:14.643Z,-3.89
2019-03-10T00:21:40.605Z,-3.89
2019-03-10T00:24:06.438Z,-3.89
2019-03-10T00:26:32.579Z,-3.88
2019-03-10T00:28:58.521Z,-3.95
2019-03-10T00:31:24.502Z,-3.88
2019-03-10T00:33:50.610Z,-3.85
2019-03-10T00:36:16.569Z,-3.85
2019-03-10T00:38:47.208Z,-3.84
2019-03-10T00:41:33.296Z,-3.82
2019-03-10T00:44:06.887Z,-3.84
2019-03-10T00:46:34.760Z,-4.12
2019-03-10T00:49:05.287Z,-3.83
2019-03-10T00:51:41.956Z,-3.83
2019-03-10T00:54:07.812Z,-3.85
2019-03-10T00:56:33.784Z,-3.88
2019-03-10T00:58:59.796Z,-3.87
2019-03-10T01:01:25.756Z,-3.87
2019-03-10T01:03:51.738Z,-3.88
2019-03-10T01:06:17.753Z,-3.87
2019-03-10T01:08:43.708Z,-3.88
2019-03-10T01:11:09.674Z,-3.87
2019-03-10T01:13:35.839Z,-3.86
2019-03-10T01:16:01.802Z,-3.84
2019-03-10T01:18:28.704Z,-3.83
2019-03-10T01:20:54.767Z,-3.89
2019-03-10T01:23:20.611Z,-3.94
2019-03-10T01:25:46.608Z,-3.95
2019-03-10T01:28:12.716Z,-3.97
2019-03-10T01:30:40.446Z,-3.96
2019-03-10T01:33:11.116Z,-3.93
2019-03-10T01:35:37.088Z,-3.98
2019-03-10T01:38:02.945Z,-4.00
2019-03-10T01:40:28.825Z,-4.02
2019-03-10T01:42:54.830Z,-4.01
2019-03-10T01:45:20.813Z,-4.00
2019-03-10T01:47:46.673Z,-4.01
2019-03-10T01:50:12.903Z,-3.98
2019-03-10T01:52:38.780Z,-4.02
2019-03-10T01:55:05.572Z,-4.03
2019-03-10T01:57:31.590Z,-4.04
2019-03-10T01:59:57.451Z,-4.05
2019-03-10T02:02:25.699Z,-4.05
2019-03-10T02:04:51.084Z,-4.04
2019-03-10T02:07:17.122Z,-4.02
2019-03-10T02:09:43.014Z,-4.01
2019-03-10T02:12:09.164Z,-3.97
2019-03-10T02:14:35.117Z,-3.96
2019-03-10T02:17:00.966Z,-3.96
2019-03-10T02:19:27.061Z,-3.95
2019-03-10T02:21:53.079Z,-3.95
2019-03-10T02:24:23.812Z,-4.26
2019-03-10T02:26:46.791Z,-4.01
2019-03-10T02:29:12.639Z,-4.05
2019-03-10T02:31:38.501Z,-4.09
2019-03-10T02:34:06.494Z,-4.11
2019-03-10T02:36:32.361Z,-4.15
2019-03-10T02:38:58.314Z,-4.15
2019-03-10T02:41:24.439Z,-4.16
2019-03-10T02:43:50.285Z,-4.17
2019-03-10T02:46:16.188Z,-4.15
2019-03-10T02:48:42.234Z,-4.13
2019-03-10T02:51:08.331Z,-4.11
2019-03-10T02:53:34.325Z,-4.11
2019-03-10T02:56:00.369Z,-4.11
2019-03-10T02:58:26.250Z,-4.09
2019-03-10T03:00:52.245Z,-4.09
2019-03-10T03:03:18.181Z,-4.09
2019-03-10T03:05:44.040Z,-4.08
2019-03-10T03:08:09.894Z,-4.09
2019-03-10T03:10:35.990Z,-4.08
2019-03-10T03:13:01.833Z,-4.06
2019-03-10T03:15:27.801Z,-4.08
2019-03-10T03:17:53.827Z,-4.07
2019-03-10T03:20:19.708Z,-4.05
2019-03-10T03:22:45.577Z,-4.05
2019-03-10T03:25:11.624Z,-4.03
2019-03-10T03:27:37.542Z,-4.03
2019-03-10T03:30:05.678Z,-4.03
2019-03-10T03:32:31.878Z,-4.05
2019-03-10T03:34:57.745Z,-4.07
2019-03-10T03:37:23.805Z,-4.08
2019-03-10T03:39:50.226Z,-4.07
2019-03-10T03:42:16.203Z,-4.05
2019-03-10T03:44:42.169Z,-4.04
2019-03-10T03:47:08.215Z,-4.03
2019-03-10T03:49:34.061Z,-4.02
2019-03-10T03:51:59.947Z,-4.01
2019-03-10T03:54:26.074Z,-4.02
2019-03-10T03:56:52.016Z,-4.00
2019-03-10T03:59:17.964Z,-3.99
2019-03-10T04:01:45.959Z,-3.97
2019-03-10T04:04:11.941Z,-3.97
2019-03-10T04:06:37.801Z,-3.95
2019-03-10T04:09:05.153Z,-3.93
2019-03-10T04:11:31.021Z,-3.93
2019-03-10T04:13:57.218Z,-3.91
2019-03-10T04:16:23.208Z,-3.89
2019-03-10T04:18:49.270Z,-3.87
2019-03-10T04:21:15.255Z,-3.86
2019-03-10T04:23:41.232Z,-3.84
2019-03-10T04:26:07.149Z,-3.83
2019-03-10T04:28:33.000Z,-3.80
2019-03-10T04:30:59.171Z,-3.79
2019-03-10T04:33:25.050Z,-3.77
2019-03-10T04:35:52.805Z,-3.75
2019-03-10T04:38:18.945Z,-3.72
2019-03-10T04:40:44.825Z,-3.70
2019-03-10T04:43:11.466Z,-3.68
2019-03-10T04:45:37.544Z,-3.67
2019-03-10T04:48:03.421Z,-3.66
2019-03-10T04:50:29.377Z,-3.65
2019-03-10T04:52:55.406Z,-3.64
2019-03-10T04:55:32.195Z,-3.65
2019-03-10T04:58:02.676Z,-3.65
2019-03-10T05:00:29.336Z,-3.64
2019-03-10T05:02:55.312Z,-3.65
2019-03-10T05:05:21.439Z,-3.66
2019-03-10T05:07:47.305Z,-3.67
2019-03-10T05:10:13.317Z,-3.67
2019-03-10T05:12:39.440Z,-3.67
2019-03-10T05:15:05.435Z,-3.66
2019-03-10T05:17:31.283Z,-3.67
2019-03-10T05:19:57.242Z,-3.67
2019-03-10T05:22:23.231Z,-3.68
2019-03-10T05:24:49.240Z,-3.71
2019-03-10T05:27:15.268Z,-3.71
2019-03-10T05:29:41.111Z,-3.73
2019-03-10T05:32:06.997Z,-3.72
2019-03-10T05:34:33.032Z,-3.74
2019-03-10T05:36:58.884Z,-3.73
2019-03-10T05:39:24.780Z,-3.75
2019-03-10T05:41:50.764Z,-3.78
2019-03-10T05:44:16.626Z,-3.80
2019-03-10T05:46:42.478Z,-3.78
2019-03-10T05:49:08.524Z,-3.76
2019-03-10T05:51:34.371Z,-3.76
2019-03-10T05:54:00.221Z,-3.77
2019-03-10T05:56:26.251Z,-3.76
2019-03-10T05:58:52.212Z,-3.78
2019-03-10T06:01:18.086Z,-3.80
2019-03-10T06:03:44.120Z,-3.79
2019-03-10T06:06:09.987Z,-3.79
2019-03-10T06:08:36.068Z,-3.79
2019-03-10T06:11:02.407Z,-3.78
2019-03-10T06:13:30.516Z,-3.77
2019-03-10T06:15:56.404Z,-3.79
2019-03-10T06:18:22.442Z,-3.79
2019-03-10T06:20:48.322Z,-3.79
2019-03-10T06:23:14.206Z,-3.79
2019-03-10T06:25:40.339Z,-3.78
2019-03-10T06:28:06.276Z,-3.79
2019-03-10T06:30:32.233Z,-3.81
2019-03-10T06:32:58.284Z,-3.80
2019-03-10T06:35:24.189Z,-3.81
2019-03-10T06:37:50.039Z,-3.82
2019-03-10T06:40:16.078Z,-3.84
2019-03-10T06:42:43.915Z,-3.86
2019-03-10T06:45:09.893Z,-3.85
2019-03-10T06:47:35.932Z,-3.84
2019-03-10T06:50:02.716Z,-3.85
2019-03-10T06:52:28.583Z,-3.86
2019-03-10T06:54:54.605Z,-3.88
2019-03-10T06:57:20.463Z,-3.88
2019-03-10T06:59:46.451Z,-3.89
2019-03-10T07:02:12.523Z,-3.90
2019-03-10T07:04:38.406Z,-3.91
2019-03-10T07:07:04.375Z,-3.92
2019-03-10T07:09:30.445Z,-3.93
2019-03-10T07:11:56.426Z,-3.95
2019-03-10T07:14:22.279Z,-3.93
2019-03-10T07:16:48.466Z,-3.93
2019-03-10T07:19:14.311Z,-3.91
2019-03-10T07:21:40.184Z,-3.91
2019-03-10T07:24:06.243Z,-3.94
2019-03-10T07:26:33.139Z,-3.98
2019-03-10T07:29:03.501Z,-4.02
2019-03-10T07:31:47.924Z,-4.05
2019-03-10T07:34:15.666Z,-4.04
2019-03-10T07:37:01.727Z,-4.07
2019-03-10T07:39:38.283Z,-4.08
2019-03-10T07:42:06.231Z,-4.07
2019-03-10T07:44:34.067Z,-4.05
2019-03-10T07:47:17.097Z,-4.02
2019-03-10T07:49:47.457Z,-3.99
2019-03-10T07:52:24.183Z,-3.98
2019-03-10T07:54:51.943Z,-3.96
2019-03-10T07:57:25.714Z,-3.94
2019-03-10T07:59:56.343Z,-3.92
2019-03-10T08:02:36.255Z,-3.88
2019-03-10T08:05:07.822Z,-3.86
2019-03-10T08:07:35.681Z,-3.86
2019-03-10T08:10:03.948Z,-3.82
2019-03-10T08:12:34.661Z,-3.79
2019-03-10T08:15:18.721Z,-3.78
2019-03-10T08:17:49.486Z,-3.78
2019-03-10T08:20:19.886Z,-3.78
2019-03-10T08:22:59.673Z,-3.79
2019-03-10T08:25:33.085Z,-3.79
2019-03-10T08:28:20.368Z,-3.77
2019-03-10T08:30:54.186Z,-3.74
2019-03-10T08:33:38.217Z,-3.73
2019-03-10T08:36:08.587Z,-3.70
2019-03-10T08:38:42.443Z,-3.67
2019-03-10T08:41:26.466Z,-3.65
2019-03-10T08:43:57.286Z,-3.59
2019-03-10T08:46:27.718Z,-3.53
2019-03-10T08:49:01.434Z,-3.49
2019-03-10T08:51:45.464Z,-3.46
2019-03-10T08:54:16.297Z,-3.43
2019-03-10T08:56:44.048Z,-3.38
2019-03-10T08:59:20.811Z,-3.35
2019-03-10T09:01:48.587Z,-3.32
2019-03-10T09:04:16.461Z,-3.30
2019-03-10T09:07:02.496Z,-3.29
2019-03-10T09:09:39.141Z,-3.27
2019-03-10T09:12:07.019Z,-3.27
2019-03-10T09:14:40.833Z,-3.29
2019-03-10T09:17:17.710Z,-3.30
2019-03-10T09:19:48.336Z,-3.25
2019-03-10T09:22:27.995Z,-3.20
2019-03-10T09:25:01.422Z,-3.13
2019-03-10T09:27:29.401Z,-3.04
2019-03-10T09:30:09.200Z,-2.95
2019-03-10T09:32:37.104Z,-2.91
2019-03-10T09:35:05.717Z,-2.89
2019-03-10T09:37:39.483Z,-2.86
2019-03-10T09:40:08.160Z,-2.83
2019-03-10T09:42:38.569Z,-2.81
2019-03-10T09:45:19.527Z,-2.84
2019-03-10T09:47:47.327Z,-2.87
2019-03-10T09:50:17.799Z,-2.92
2019-03-10T09:52:54.461Z,-2.95
2019-03-10T09:55:24.888Z,-2.94
2019-03-10T09:58:01.687Z,-2.91
2019-03-10T10:00:45.980Z,-2.86
2019-03-10T10:03:25.993Z,-2.73
2019-03-10T10:05:59.538Z,-2.59
2019-03-10T10:08:36.216Z,-2.44
2019-03-10T10:11:04.072Z,-2.30
2019-03-10T10:13:34.465Z,-2.18
2019-03-10T10:16:19.038Z,-2.11
2019-03-10T10:19:01.574Z,-2.11
2019-03-10T10:21:29.488Z,-2.14
2019-03-10T10:23:59.889Z,-2.22
2019-03-10T10:26:30.412Z,-2.31
2019-03-10T10:28:58.433Z,-2.37
2019-03-10T10:31:29.116Z,-2.35
2019-03-10T10:33:56.916Z,-2.29
2019-03-10T10:36:30.429Z,-2.22
2019-03-10T10:39:01.256Z,-2.06
2019-03-10T10:41:29.004Z,-1.90
2019-03-10T10:44:11.712Z,-1.82
2019-03-10T10:46:39.491Z,-1.67
2019-03-10T10:49:10.056Z,-1.55
2019-03-10T10:51:40.790Z,-1.42
2019-03-10T10:54:08.519Z,-1.29
2019-03-10T10:56:48.435Z,-1.14
2019-03-10T10:59:16.211Z,-1.01
2019-03-10T11:01:56.104Z,-0.87
2019-03-10T11:04:23.962Z,-0.78
2019-03-10T11:06:54.598Z,-0.74
2019-03-10T11:09:28.537Z,-0.76
2019-03-10T11:12:12.518Z,-0.78
2019-03-10T11:14:55.558Z,-0.82
2019-03-10T11:17:26.198Z,-0.84
2019-03-10T11:20:02.973Z,-0.91
2019-03-10T11:22:30.839Z,-0.91
2019-03-10T11:25:04.714Z,-0.86
2019-03-10T11:27:49.061Z,-0.78
2019-03-10T11:30:17.061Z,-0.70
2019-03-10T11:32:44.843Z,-0.59
2019-03-10T11:35:21.516Z,-0.55
2019-03-10T11:37:51.976Z,-0.60
2019-03-10T11:40:36.135Z,-0.71
2019-03-10T11:43:04.017Z,-0.91
2019-03-10T11:45:44.013Z,-1.11
2019-03-10T11:48:14.388Z,-1.27
2019-03-10T11:50:51.199Z,-1.34
2019-03-10T11:53:21.546Z,-1.34
2019-03-10T11:55:52.308Z,-1.31
2019-03-10T11:58:20.126Z,-1.25
2019-03-10T12:00:47.889Z,-1.18
2019-03-10T12:03:32.018Z,-1.15
2019-03-10T12:06:08.702Z,-1.17
2019-03-10T12:08:36.588Z,-1.16
2019-03-10T12:11:02.568Z,-1.17
2019-03-10T12:13:28.525Z,-1.13
2019-03-10T12:15:54.640Z,-1.06
2019-03-10T12:18:20.497Z,-0.97
2019-03-10T12:20:46.356Z,-0.82
2019-03-10T12:23:12.405Z,-0.70
2019-03-10T12:25:38.238Z,-0.61
2019-03-10T12:28:04.227Z,-0.48
2019-03-10T12:30:30.333Z,-0.38
2019-03-10T12:32:56.199Z,-0.35
2019-03-10T12:35:22.150Z,-0.31
2019-03-10T12:37:48.162Z,-0.29
2019-03-10T12:40:14.121Z,-0.28
2019-03-10T12:42:40.074Z,-0.28
2019-03-10T12:45:07.129Z,-0.25
2019-03-10T12:47:33.010Z,-0.23
2019-03-10T12:49:58.899Z,-0.19
2019-03-10T12:52:24.996Z,-0.17
2019-03-10T12:54:51.112Z,-0.21
2019-03-10T12:57:17.066Z,-0.23
2019-03-10T12:59:43.060Z,-0.22
2019-03-10T13:02:09.027Z,-0.26
2019-03-10T13:04:34.982Z,-0.23
2019-03-10T13:07:00.995Z,-0.17
2019-03-10T13:09:26.839Z,-0.11
2019-03-10T13:11:52.822Z,-0.03
2019-03-10T13:14:18.892Z,-0.04
2019-03-10T13:16:44.746Z,0.02
2019-03-10T13:19:10.598Z,0.07
2019-03-10T13:21:36.702Z,0.11
2019-03-10T13:24:02.769Z,0.17
2019-03-10T13:26:28.725Z,0.17
2019-03-10T13:28:54.844Z,0.23
2019-03-10T13:31:20.688Z,0.28
2019-03-10T13:33:46.570Z,0.28
2019-03-10T13:36:12.681Z,0.29
2019-03-10T13:38:38.541Z,0.33
2019-03-10T13:41:04.411Z,0.38
2019-03-10T13:43:30.606Z,0.45
2019-03-10T13:45:56.538Z,0.45
2019-03-10T13:48:22.490Z,0.49
2019-03-10T13:50:48.619Z,0.54
2019-03-10T13:53:14.555Z,0.54
2019-03-10T13:55:40.501Z,0.51
2019-03-10T13:58:08.430Z,0.49
2019-03-10T14:00:34.281Z,0.47
2019-03-10T14:03:00.180Z,0.43
2019-03-10T14:05:26.124Z,0.38
2019-03-10T14:07:51.958Z,0.31
2019-03-10T14:10:17.914Z,0.18
2019-03-10T14:12:43.994Z,0.03
2019-03-10T14:15:11.755Z,-0.16
2019-03-10T14:17:37.616Z,-0.22
2019-03-10T14:20:05.244Z,-0.22
2019-03-10T14:22:31.101Z,-0.22
2019-03-10T14:24:56.973Z,-0.22
2019-03-10T14:27:23.158Z,-0.27
2019-03-10T14:29:49.056Z,-0.25
2019-03-10T14:32:14.936Z,-0.26
2019-03-10T14:34:40.944Z,-0.28
2019-03-10T14:37:06.830Z,-0.26
2019-03-10T14:39:32.972Z,-0.24
2019-03-10T14:41:59.100Z,-0.22
2019-03-10T14:44:24.989Z,-0.19
2019-03-10T14:46:50.858Z,-0.18
2019-03-10T14:49:23.184Z,-0.17
2019-03-10T14:51:44.490Z,-0.25
2019-03-10T14:54:10.373Z,-0.34
2019-03-10T14:56:36.614Z,-0.39
2019-03-10T14:59:02.568Z,-0.39
2019-03-10T15:01:28.426Z,-0.42
2019-03-10T15:03:54.405Z,-0.44
2019-03-10T15:06:20.372Z,-0.48
2019-03-10T15:08:46.612Z,-0.52
2019-03-10T15:11:12.569Z,-0.55
2019-03-10T15:13:38.433Z,-0.57
2019-03-10T15:16:04.266Z,-0.58
2019-03-10T15:18:31.539Z,-0.64
2019-03-10T15:20:57.432Z,-0.70
2019-03-10T15:23:23.270Z,-0.73
2019-03-10T15:25:49.132Z,-0.74
2019-03-10T15:28:14.976Z,-0.76
2019-03-10T15:30:40.851Z,-0.78
2019-03-10T15:33:06.741Z,-0.81
2019-03-10T15:35:32.603Z,-0.81
2019-03-10T15:37:58.452Z,-0.83
2019-03-10T15:40:24.330Z,-0.86
2019-03-10T15:42:50.198Z,-0.88
2019-03-10T15:45:19.202Z,-0.96
2019-03-10T15:47:45.378Z,-1.01
2019-03-10T15:50:30.462Z,-1.09
2019-03-10T15:52:56.445Z,-1.11
2019-03-10T15:55:22.419Z,-1.14
2019-03-10T15:57:50.644Z,-1.17
2019-03-10T16:00:20.039Z,-1.18
2019-03-10T16:02:45.967Z,-1.18
2019-03-10T16:05:12.077Z,-1.19
2019-03-10T16:07:38.072Z,-1.25
2019-03-10T16:10:05.218Z,-1.28
2019-03-10T16:12:31.107Z,-1.28
2019-03-10T16:14:57.013Z,-1.27
2019-03-10T16:17:22.855Z,-1.28
2019-03-10T16:19:48.709Z,-1.32
2019-03-10T16:22:14.639Z,-1.36
2019-03-10T16:24:40.796Z,-1.43
2019-03-10T16:27:06.639Z,-1.51
2019-03-10T16:29:32.494Z,-1.57
2019-03-10T16:31:58.460Z,-1.62
2019-03-10T16:34:24.315Z,-1.65
2019-03-10T16:36:50.269Z,-1.71
2019-03-10T16:39:16.097Z,-1.76
2019-03-10T16:41:41.967Z,-1.79
2019-03-10T16:44:07.852Z,-1.87
2019-03-10T16:46:33.721Z,-1.94
2019-03-10T16:48:59.662Z,-1.97
2019-03-10T16:51:25.527Z,-1.96
2019-03-10T16:53:53.298Z,-1.97
2019-03-10T16:56:21.171Z,-1.96
2019-03-10T16:58:47.108Z,-1.96
2019-03-10T17:01:13.253Z,-1.99
2019-03-10T17:03:39.125Z,-2.02
2019-03-10T17:06:05.177Z,-2.03
2019-03-10T17:08:31.036Z,-2.07
2019-03-10T17:10:56.916Z,-2.08
2019-03-10T17:13:23.900Z,-2.08
2019-03-10T17:15:50.733Z,-2.12
2019-03-10T17:18:16.608Z,-2.16
2019-03-10T17:20:42.469Z,-2.20
2019-03-10T17:23:08.307Z,-2.23
2019-03-10T17:25:34.267Z,-2.25
2019-03-10T17:28:00.258Z,-2.29
2019-03-10T17:30:26.401Z,-2.33
2019-03-10T17:32:52.306Z,-2.36
2019-03-10T17:35:18.618Z,-2.37
2019-03-10T17:37:48.240Z,-2.36
2019-03-10T17:40:13.298Z,-2.38
2019-03-10T17:42:42.994Z,-2.39
2019-03-10T17:45:10.345Z,-2.43
2019-03-10T17:47:36.268Z,-2.43
2019-03-10T17:50:03.040Z,-2.46
2019-03-10T17:52:28.902Z,-2.44
2019-03-10T17:54:56.686Z,-2.44
2019-03-10T18:09:21.799Z,-2.54
2019-03-10T18:11:47.762Z,-2.55
2019-03-10T18:14:13.750Z,-2.53
2019-03-10T18:16:39.718Z,-2.54
2019-03-10T18:19:05.599Z,-2.52
2019-03-10T18:21:31.552Z,-2.52
2019-03-10T18:23:57.618Z,-2.53
2019-03-10T18:26:23.518Z,-2.52
2019-03-10T18:28:49.410Z,-2.53
2019-03-10T18:31:15.255Z,-2.53
2019-03-10T18:33:41.145Z,-2.51
2019-03-10T18:36:07.020Z,-2.47
2019-03-10T18:38:32.908Z,-2.45
2019-03-10T18:40:58.763Z,-2.43
2019-03-10T18:43:25.253Z,-2.44
2019-03-10T18:45:51.191Z,-2.43
2019-03-10T18:48:17.163Z,-2.42
2019-03-10T18:50:43.134Z,-2.44
2019-03-10T18:53:09.147Z,-2.45
2019-03-10T18:55:34.978Z,-2.46
2019-03-10T18:58:01.970Z,-2.48
2019-03-10T19:00:31.121Z,-2.50
2019-03-10T19:02:58.595Z,-2.52
2019-03-10T19:05:24.549Z,-2.52
2019-03-10T19:07:50.466Z,-2.54
2019-03-10T19:10:16.566Z,-2.53
2019-03-10T19:12:42.925Z,-2.54
2019-03-10T19:15:18.513Z,-2.57
2019-03-10T19:17:44.501Z,-2.58
2019-03-10T19:20:11.268Z,-2.59
2019-03-10T19:22:38.282Z,-2.59
2019-03-10T19:25:04.500Z,-2.59
2019-03-10T19:27:30.623Z,-2.62
2019-03-10T19:29:56.517Z,-2.63
2019-03-10T19:32:22.386Z,-2.64
2019-03-10T19:34:48.371Z,-2.66
2019-03-10T19:37:14.258Z,-2.67
2019-03-10T19:39:40.239Z,-2.68
2019-03-10T19:42:06.090Z,-2.69
2019-03-10T19:44:31.955Z,-2.70
2019-03-10T19:46:57.846Z,-2.69
2019-03-10T19:49:23.674Z,-2.71
2019-03-10T19:51:49.544Z,-2.72
2019-03-10T19:54:15.431Z,-2.71
2019-03-10T19:56:41.417Z,-2.74
2019-03-10T19:59:07.275Z,-2.74
2019-03-10T20:01:33.137Z,-2.74
2019-03-10T20:03:59.063Z,-2.73
2019-03-10T20:06:25.033Z,-2.75
2019-03-10T20:08:50.988Z,-2.75
2019-03-10T20:11:17.053Z,-2.77
2019-03-10T20:13:42.941Z,-2.78
2019-03-10T20:16:08.812Z,-2.81
2019-03-10T20:18:34.676Z,-2.86
2019-03-10T20:21:00.527Z,-2.88
2019-03-10T20:23:26.402Z,-2.88
2019-03-10T20:25:52.377Z,-2.86
2019-03-10T20:28:18.236Z,-2.88
2019-03-10T20:30:44.246Z,-2.87
2019-03-10T20:33:10.091Z,-2.88
2019-03-10T20:35:35.946Z,-2.89
2019-03-10T20:38:01.943Z,-2.92
2019-03-10T20:40:27.884Z,-2.91
2019-03-10T20:42:53.854Z,-2.92
2019-03-10T20:45:19.822Z,-2.91
2019-03-10T20:47:45.809Z,-2.91
2019-03-10T20:50:19.767Z,-2.89
2019-03-10T20:52:45.634Z,-2.88
2019-03-10T20:55:11.888Z,-2.85
2019-03-10T20:57:38.042Z,-2.84
2019-03-10T21:00:05.799Z,-2.85
2019-03-10T21:02:32.685Z,-2.86
2019-03-10T21:04:58.670Z,-2.86
2019-03-10T21:07:24.555Z,-2.88
2019-03-10T21:09:50.390Z,-2.89
2019-03-10T21:12:16.480Z,-2.91
2019-03-10T21:14:42.442Z,-2.93
2019-03-10T21:17:08.307Z,-2.96
2019-03-10T21:19:34.185Z,-2.98
2019-03-10T21:22:00.042Z,-2.98
2019-03-10T21:24:25.894Z,-3.01
2019-03-10T21:26:51.785Z,-3.03
2019-03-10T21:29:17.749Z,-3.04
2019-03-10T21:31:43.682Z,-3.06
2019-03-10T21:34:09.542Z,-3.06
2019-03-10T21:36:35.388Z,-3.08
2019-03-10T21:39:01.355Z,-3.09
2019-03-10T21:41:27.319Z,-3.11
2019-03-10T21:43:53.284Z,-3.12
2019-03-10T21:46:21.058Z,-3.16
2019-03-10T21:48:46.925Z,-3.19
2019-03-10T21:51:12.780Z,-3.23
2019-03-10T21:53:38.643Z,-3.24
2019-03-10T21:56:04.494Z,-3.24
2019-03-10T21:58:30.350Z,-3.25
2019-03-10T22:00:56.193Z,-3.25
2019-03-10T22:03:22.186Z,-3.27
2019-03-10T22:05:48.079Z,-3.29
2019-03-10T22:08:13.938Z,-3.34
2019-03-10T22:10:39.852Z,-3.37
2019-03-10T22:13:05.895Z,-3.37
2019-03-10T22:15:41.198Z,-3.38
2019-03-10T22:17:59.486Z,-3.38
2019-03-10T22:20:25.400Z,-3.40
2019-03-10T22:22:51.366Z,-3.43
2019-03-10T22:25:17.258Z,-3.45
2019-03-10T22:27:45.573Z,-3.45
2019-03-10T22:30:15.542Z,-3.48
2019-03-10T22:32:41.402Z,-3.49
2019-03-10T22:35:07.383Z,-3.48
2019-03-10T22:37:33.342Z,-3.49
2019-03-10T22:39:59.215Z,-3.52
2019-03-10T22:42:25.062Z,-3.55
2019-03-10T22:44:50.912Z,-3.55
2019-03-10T22:47:16.911Z,-3.55
2019-03-10T22:49:42.750Z,-3.56
2019-03-10T22:52:08.591Z,-3.58
2019-03-10T22:54:34.484Z,-3.59
2019-03-10T22:57:00.340Z,-3.58
2019-03-10T22:59:26.273Z,-3.57
2019-03-10T23:01:52.333Z,-3.58
2019-03-10T23:04:18.180Z,-3.59
2019-03-10T23:06:44.099Z,-3.60
2019-03-10T23:09:09.960Z,-3.59
2019-03-10T23:11:35.943Z,-3.62
2019-03-10T23:14:02.009Z,-3.61
2019-03-10T23:16:27.853Z,-3.60
2019-03-10T23:18:53.706Z,-3.61
2019-03-10T23:21:21.429Z,-3.61
2019-03-10T23:23:47.306Z,-3.61
2019-03-10T23:26:13.218Z,-3.62
2019-03-10T23:28:39.071Z,-3.65
2019-03-10T23:31:04.955Z,-3.68
2019-03-10T23:33:30.805Z,-3.72
2019-03-10T23:35:56.777Z,-3.74
2019-03-10T23:38:22.659Z,-3.75
2019-03-10T23:40:48.639Z,-3.78
2019-03-10T23:43:14.474Z,-3.81
2019-03-10T23:45:40.455Z,-3.80
2019-03-10T23:48:06.408Z,-3.82
2019-03-10T23:50:32.324Z,-3.82
2019-03-10T23:52:58.271Z,-3.84
2019-03-10T23:55:24.112Z,-3.84
2019-03-10T23:57:49.971Z,-3.83
